OAS435 LTFM-HECA
Flight info
| Callsign | OAS435 |
|---|---|
| Flight time | 1h 42m |
| Altitude | 35000 |
| Route | RATVU1D/35L RATVU UT35 AYT UM855 TOMBI M855 RASDA A16 CVO |
| Aircraft | A359/H-SDE2E3GHIJ3J4J5LM1ORWXY/LB1D1 |
Departure
| Time | 2026-05-04 16:18 |
|---|---|
| Airport | İstanbul Airport (LTFM) |
Arrival
| Time | 2026-05-04 18:00 |
|---|---|
| Airport | Cairo International Airport (HECA) |
| Time | Latitude | Longitude | Altitude | Speed | Heading |
|---|---|---|---|---|---|
| 2026-05-04 15:07 | 41.26467 | 28.73546 | 337 ft | 0 kts | 71° |
| 2026-05-04 16:06 | 41.26450 | 28.73477 | 335 ft | 2 kts | 71° |
| 2026-05-04 16:07 | 41.26445 | 28.73447 | 335 ft | 3 kts | 108° |
| 2026-05-04 16:07 | 41.26487 | 28.73404 | 335 ft | 0 kts | 161° |
| 2026-05-04 16:12 | 41.26474 | 28.73410 | 336 ft | 6 kts | 161° |
| 2026-05-04 16:12 | 41.26336 | 28.73474 | 337 ft | 1 kts | 161° |
| 2026-05-04 16:13 | 41.26331 | 28.73476 | 338 ft | 3 kts | 161° |
| 2026-05-04 16:13 | 41.26227 | 28.73486 | 336 ft | 6 kts | 231° |
| 2026-05-04 16:14 | 41.26219 | 28.73330 | 337 ft | 14 kts | 269° |
| 2026-05-04 16:14 | 41.26216 | 28.73042 | 338 ft | 18 kts | 270° |
| 2026-05-04 16:15 | 41.26210 | 28.72592 | 337 ft | 13 kts | 269° |
| 2026-05-04 16:16 | 41.26225 | 28.72541 | 335 ft | 4 kts | 326° |
| 2026-05-04 16:16 | 41.26439 | 28.72518 | 336 ft | 63 kts | 359° |
| 2026-05-04 16:17 | 41.28181 | 28.72487 | 675 ft | 155 kts | 358° |
| 2026-05-04 16:18 | 41.31427 | 28.72468 | 2780 ft | 179 kts | 2° |
| 2026-05-04 16:18 | 41.32752 | 28.72481 | 3197 ft | 204 kts | 2° |
| 2026-05-04 16:19 | 41.37280 | 28.71292 | 5303 ft | 245 kts | 320° |
| 2026-05-04 16:19 | 41.38288 | 28.66865 | 7188 ft | 270 kts | 275° |
| 2026-05-04 16:20 | 41.37897 | 28.59039 | 9767 ft | 302 kts | 260° |
| 2026-05-04 16:20 | 41.35016 | 28.54582 | 10831 ft | 355 kts | 204° |
| 2026-05-04 16:21 | 41.27541 | 28.54818 | 13194 ft | 369 kts | 168° |
| 2026-05-04 16:22 | 41.22958 | 28.57572 | 14882 ft | 360 kts | 133° |
| 2026-05-04 16:22 | 41.17558 | 28.64650 | 17169 ft | 371 kts | 131° |
| 2026-05-04 16:23 | 41.12102 | 28.72109 | 19443 ft | 378 kts | 121° |
| 2026-05-04 16:24 | 41.02526 | 28.78636 | 22213 ft | 416 kts | 163° |
| 2026-05-04 16:25 | 40.96819 | 28.80398 | 23601 ft | 425 kts | 162° |
| 2026-05-04 16:26 | 40.85155 | 28.84065 | 26043 ft | 436 kts | 162° |
| 2026-05-04 16:26 | 40.76228 | 28.86877 | 27830 ft | 444 kts | 162° |
| 2026-05-04 16:27 | 40.70196 | 28.88773 | 29037 ft | 449 kts | 162° |
| 2026-05-04 16:28 | 40.61002 | 28.91658 | 30586 ft | 457 kts | 162° |
| 2026-05-04 16:28 | 40.52083 | 28.96082 | 31678 ft | 460 kts | 144° |
| 2026-05-04 16:29 | 40.41202 | 29.05396 | 33059 ft | 475 kts | 144° |
| 2026-05-04 16:30 | 40.32784 | 29.12561 | 33983 ft | 487 kts | 144° |
| 2026-05-04 16:31 | 40.27064 | 29.17410 | 34536 ft | 492 kts | 145° |
| 2026-05-04 16:31 | 40.18395 | 29.24499 | 35048 ft | 477 kts | 152° |
| 2026-05-04 16:32 | 40.10378 | 29.28500 | 35070 ft | 458 kts | 158° |
| 2026-05-04 16:33 | 40.04346 | 29.31357 | 35333 ft | 467 kts | 158° |
| 2026-05-04 16:33 | 39.98165 | 29.34284 | 35671 ft | 478 kts | 159° |
| 2026-05-04 16:34 | 39.91836 | 29.37279 | 36005 ft | 488 kts | 159° |
| 2026-05-04 16:34 | 39.88639 | 29.38811 | 36187 ft | 492 kts | 158° |
| 2026-05-04 16:35 | 39.79144 | 29.44053 | 37086 ft | 494 kts | 156° |
| 2026-05-04 16:35 | 39.69686 | 29.49358 | 38057 ft | 494 kts | 157° |
| 2026-05-04 16:36 | 39.66524 | 29.51098 | 38378 ft | 494 kts | 157° |
| 2026-05-04 16:36 | 39.60217 | 29.54494 | 38903 ft | 494 kts | 159° |
| 2026-05-04 16:37 | 39.53806 | 29.57664 | 39039 ft | 492 kts | 160° |
| 2026-05-04 16:37 | 39.50597 | 29.59224 | 39037 ft | 491 kts | 160° |
| 2026-05-04 16:38 | 39.37817 | 29.65522 | 39034 ft | 491 kts | 159° |
| 2026-05-04 16:39 | 39.21883 | 29.73429 | 39038 ft | 490 kts | 159° |
| 2026-05-04 16:40 | 39.09158 | 29.79708 | 39037 ft | 489 kts | 160° |
| 2026-05-04 16:41 | 38.93238 | 29.87527 | 39029 ft | 496 kts | 160° |
| 2026-05-04 16:43 | 38.76929 | 29.95373 | 39031 ft | 501 kts | 161° |
| 2026-05-04 16:43 | 38.67128 | 29.99998 | 39026 ft | 501 kts | 161° |
| 2026-05-04 16:45 | 38.47490 | 30.09270 | 39025 ft | 502 kts | 161° |
| 2026-05-04 16:46 | 38.31070 | 30.16981 | 39021 ft | 504 kts | 161° |
| 2026-05-04 16:47 | 38.17875 | 30.23031 | 39017 ft | 504 kts | 161° |
| 2026-05-04 16:48 | 38.04655 | 30.29077 | 39001 ft | 505 kts | 161° |
| 2026-05-04 16:49 | 37.91438 | 30.35087 | 38992 ft | 505 kts | 161° |
| 2026-05-04 16:50 | 37.78220 | 30.41057 | 38994 ft | 504 kts | 161° |
| 2026-05-04 16:51 | 37.68366 | 30.45496 | 38994 ft | 503 kts | 161° |
| 2026-05-04 16:52 | 37.55182 | 30.51417 | 38989 ft | 502 kts | 162° |
| 2026-05-04 16:53 | 37.45323 | 30.55830 | 38974 ft | 501 kts | 162° |
| 2026-05-04 16:54 | 37.32200 | 30.61683 | 38959 ft | 500 kts | 163° |
| 2026-05-04 16:55 | 37.12561 | 30.70402 | 38920 ft | 499 kts | 163° |
| 2026-05-04 16:56 | 36.96166 | 30.77643 | 38909 ft | 501 kts | 163° |
| 2026-05-04 16:57 | 36.85982 | 30.79719 | 38911 ft | 494 kts | 180° |
| 2026-05-04 16:58 | 36.72238 | 30.80167 | 38910 ft | 494 kts | 182° |
| 2026-05-04 17:00 | 36.51656 | 30.80844 | 38890 ft | 492 kts | 182° |
| 2026-05-04 17:01 | 36.34606 | 30.81427 | 38882 ft | 491 kts | 182° |
| 2026-05-04 17:02 | 36.20951 | 30.81882 | 38870 ft | 491 kts | 182° |
| 2026-05-04 17:03 | 36.10713 | 30.82223 | 38865 ft | 490 kts | 182° |
| 2026-05-04 17:03 | 36.00489 | 30.82594 | 38869 ft | 490 kts | 181° |
| 2026-05-04 17:04 | 35.86888 | 30.83467 | 38861 ft | 489 kts | 181° |
| 2026-05-04 17:05 | 35.73301 | 30.84304 | 38869 ft | 489 kts | 181° |
| 2026-05-04 17:06 | 35.63118 | 30.84914 | 38864 ft | 488 kts | 182° |
| 2026-05-04 17:07 | 35.54087 | 30.85332 | 38865 ft | 487 kts | 183° |
| 2026-05-04 17:07 | 35.46172 | 30.85548 | 38866 ft | 487 kts | 184° |
| 2026-05-04 17:08 | 35.36015 | 30.85861 | 38871 ft | 486 kts | 183° |
| 2026-05-04 17:09 | 35.29259 | 30.86086 | 38872 ft | 486 kts | 183° |
| 2026-05-04 17:09 | 35.22492 | 30.86315 | 38879 ft | 486 kts | 184° |
| 2026-05-04 17:10 | 35.05598 | 30.86883 | 38888 ft | 485 kts | 184° |
| 2026-05-04 17:11 | 34.98850 | 30.87105 | 38896 ft | 485 kts | 184° |
| 2026-05-04 17:12 | 34.88735 | 30.87440 | 38904 ft | 484 kts | 184° |
| 2026-05-04 17:13 | 34.71898 | 30.87997 | 38912 ft | 484 kts | 184° |
| 2026-05-04 17:14 | 34.58427 | 30.88458 | 38930 ft | 484 kts | 184° |
| 2026-05-04 17:15 | 34.48320 | 30.88971 | 38932 ft | 485 kts | 184° |
| 2026-05-04 17:16 | 34.34829 | 30.89654 | 38954 ft | 485 kts | 184° |
| 2026-05-04 17:17 | 34.21399 | 30.90315 | 38960 ft | 485 kts | 184° |
| 2026-05-04 17:18 | 34.07925 | 30.91073 | 38971 ft | 484 kts | 184° |
| 2026-05-04 17:19 | 33.95604 | 30.91762 | 38982 ft | 484 kts | 185° |
| 2026-05-04 17:20 | 33.82185 | 30.92307 | 38984 ft | 482 kts | 186° |
| 2026-05-04 17:20 | 33.72137 | 30.92660 | 38993 ft | 481 kts | 186° |
| 2026-05-04 17:21 | 33.58747 | 30.93166 | 39000 ft | 481 kts | 186° |
| 2026-05-04 17:22 | 33.52067 | 30.93420 | 39005 ft | 480 kts | 186° |
| 2026-05-04 17:23 | 33.38721 | 30.93923 | 39013 ft | 479 kts | 186° |
| 2026-05-04 17:24 | 33.28726 | 30.94300 | 39016 ft | 478 kts | 186° |
| 2026-05-04 17:25 | 33.15458 | 30.94798 | 39024 ft | 476 kts | 186° |
| 2026-05-04 17:26 | 33.02232 | 30.95676 | 39023 ft | 480 kts | 182° |
| 2026-05-04 17:27 | 32.85631 | 30.97735 | 39032 ft | 479 kts | 182° |
| 2026-05-04 17:28 | 32.72374 | 30.99211 | 39043 ft | 478 kts | 183° |
| 2026-05-04 17:29 | 32.52540 | 31.01411 | 39051 ft | 476 kts | 183° |
| 2026-05-04 17:31 | 32.36083 | 31.03234 | 39062 ft | 474 kts | 183° |
| 2026-05-04 17:32 | 32.19690 | 31.05040 | 39065 ft | 472 kts | 183° |
| 2026-05-04 17:33 | 32.06660 | 31.06472 | 39076 ft | 471 kts | 183° |
| 2026-05-04 17:34 | 31.96930 | 31.07541 | 39015 ft | 458 kts | 184° |
| 2026-05-04 17:34 | 31.93768 | 31.07889 | 38709 ft | 455 kts | 184° |
| 2026-05-04 17:35 | 31.84249 | 31.08892 | 36597 ft | 459 kts | 184° |
| 2026-05-04 17:35 | 31.77878 | 31.09570 | 35457 ft | 458 kts | 183° |
| 2026-05-04 17:35 | 31.74719 | 31.09911 | 34959 ft | 456 kts | 183° |
| 2026-05-04 17:36 | 31.71564 | 31.10252 | 34468 ft | 454 kts | 183° |
| 2026-05-04 17:36 | 31.68440 | 31.10588 | 33944 ft | 452 kts | 183° |
| 2026-05-04 17:36 | 31.65310 | 31.10925 | 33408 ft | 449 kts | 183° |
| 2026-05-04 17:36 | 31.62203 | 31.11260 | 32910 ft | 446 kts | 183° |
| 2026-05-04 17:37 | 31.59126 | 31.11592 | 32422 ft | 443 kts | 183° |
| 2026-05-04 17:37 | 31.56066 | 31.11921 | 31935 ft | 440 kts | 183° |
| 2026-05-04 17:37 | 31.53027 | 31.12246 | 31455 ft | 437 kts | 184° |
| 2026-05-04 17:37 | 31.50002 | 31.12628 | 30955 ft | 438 kts | 181° |
| 2026-05-04 17:38 | 31.46987 | 31.13160 | 30469 ft | 438 kts | 179° |
| 2026-05-04 17:38 | 31.43987 | 31.13765 | 29946 ft | 437 kts | 179° |
| 2026-05-04 17:38 | 31.40994 | 31.14386 | 29437 ft | 434 kts | 179° |
| 2026-05-04 17:38 | 31.38032 | 31.14994 | 28958 ft | 431 kts | 179° |
| 2026-05-04 17:39 | 31.32174 | 31.16145 | 28000 ft | 424 kts | 179° |
| 2026-05-04 17:39 | 31.29271 | 31.16696 | 27532 ft | 421 kts | 180° |
| 2026-05-04 17:39 | 31.26393 | 31.17234 | 27050 ft | 418 kts | 180° |
| 2026-05-04 17:40 | 31.23522 | 31.17769 | 26571 ft | 416 kts | 180° |
| 2026-05-04 17:40 | 31.20673 | 31.18302 | 26096 ft | 414 kts | 180° |
| 2026-05-04 17:40 | 31.17840 | 31.18828 | 25620 ft | 411 kts | 180° |
| 2026-05-04 17:40 | 31.15021 | 31.19350 | 25151 ft | 409 kts | 180° |
| 2026-05-04 17:41 | 31.12210 | 31.19870 | 24671 ft | 408 kts | 180° |
| 2026-05-04 17:41 | 31.09408 | 31.20389 | 24197 ft | 406 kts | 180° |
| 2026-05-04 17:41 | 31.06626 | 31.20906 | 23716 ft | 404 kts | 180° |
| 2026-05-04 17:41 | 31.03858 | 31.21420 | 23183 ft | 402 kts | 180° |
| 2026-05-04 17:42 | 31.01144 | 31.21924 | 22702 ft | 398 kts | 180° |
| 2026-05-04 17:42 | 30.98423 | 31.22431 | 22204 ft | 394 kts | 180° |
| 2026-05-04 17:42 | 30.95724 | 31.22934 | 21750 ft | 391 kts | 180° |
| 2026-05-04 17:42 | 30.93053 | 31.23430 | 21278 ft | 387 kts | 180° |
| 2026-05-04 17:43 | 30.90403 | 31.23921 | 20812 ft | 384 kts | 180° |
| 2026-05-04 17:43 | 30.87776 | 31.24407 | 20342 ft | 381 kts | 180° |
| 2026-05-04 17:43 | 30.85172 | 31.24888 | 19891 ft | 378 kts | 180° |
| 2026-05-04 17:43 | 30.82586 | 31.25367 | 19431 ft | 375 kts | 180° |
| 2026-05-04 17:44 | 30.80012 | 31.25842 | 18975 ft | 373 kts | 180° |
| 2026-05-04 17:44 | 30.77454 | 31.26314 | 18534 ft | 371 kts | 180° |
| 2026-05-04 17:44 | 30.74908 | 31.26783 | 18019 ft | 369 kts | 180° |
| 2026-05-04 17:44 | 30.72389 | 31.27247 | 17561 ft | 365 kts | 179° |
| 2026-05-04 17:45 | 30.69889 | 31.27709 | 17116 ft | 361 kts | 179° |
| 2026-05-04 17:45 | 30.67421 | 31.28164 | 16665 ft | 358 kts | 179° |
| 2026-05-04 17:45 | 30.64969 | 31.28615 | 16219 ft | 355 kts | 179° |
| 2026-05-04 17:45 | 30.62544 | 31.29062 | 15794 ft | 352 kts | 179° |
| 2026-05-04 17:46 | 30.60138 | 31.29505 | 15357 ft | 349 kts | 179° |
| 2026-05-04 17:46 | 30.57750 | 31.29943 | 14927 ft | 346 kts | 179° |
| 2026-05-04 17:46 | 30.55377 | 31.30378 | 14501 ft | 344 kts | 178° |
| 2026-05-04 17:46 | 30.53022 | 31.30811 | 14082 ft | 341 kts | 178° |
| 2026-05-04 17:47 | 30.50685 | 31.31239 | 13628 ft | 339 kts | 178° |
| 2026-05-04 17:47 | 30.48368 | 31.31666 | 13192 ft | 336 kts | 178° |
| 2026-05-04 17:47 | 30.46071 | 31.32089 | 12767 ft | 333 kts | 178° |
| 2026-05-04 17:47 | 30.43794 | 31.32511 | 12326 ft | 330 kts | 178° |
| 2026-05-04 17:48 | 30.41531 | 31.32926 | 11908 ft | 328 kts | 177° |
| 2026-05-04 17:48 | 30.39285 | 31.33338 | 11512 ft | 326 kts | 177° |
| 2026-05-04 17:48 | 30.37057 | 31.33746 | 11097 ft | 324 kts | 177° |
| 2026-05-04 17:48 | 30.34851 | 31.34151 | 10845 ft | 315 kts | 177° |
| 2026-05-04 17:49 | 30.32730 | 31.34545 | 10696 ft | 303 kts | 177° |
| 2026-05-04 17:49 | 30.30684 | 31.34925 | 10577 ft | 292 kts | 177° |
| 2026-05-04 17:49 | 30.28733 | 31.35284 | 10354 ft | 285 kts | 178° |
| 2026-05-04 17:49 | 30.26785 | 31.35638 | 10061 ft | 282 kts | 178° |
| 2026-05-04 17:50 | 30.24818 | 31.35990 | 9790 ft | 293 kts | 177° |
| 2026-05-04 17:50 | 30.22773 | 31.36357 | 9629 ft | 299 kts | 177° |
| 2026-05-04 17:50 | 30.20722 | 31.36733 | 9264 ft | 297 kts | 176° |
| 2026-05-04 17:50 | 30.18681 | 31.37107 | 8801 ft | 297 kts | 176° |
| 2026-05-04 17:51 | 30.16650 | 31.37479 | 8450 ft | 293 kts | 176° |
| 2026-05-04 17:51 | 30.14642 | 31.37848 | 8132 ft | 290 kts | 175° |
| 2026-05-04 17:51 | 30.12653 | 31.38213 | 7824 ft | 288 kts | 175° |
| 2026-05-04 17:51 | 30.10678 | 31.38579 | 7515 ft | 286 kts | 175° |
| 2026-05-04 17:52 | 30.08730 | 31.39016 | 7204 ft | 287 kts | 167° |
| 2026-05-04 17:52 | 30.06971 | 31.40113 | 6884 ft | 292 kts | 140° |
| 2026-05-04 17:52 | 30.05840 | 31.42035 | 6569 ft | 292 kts | 110° |
| 2026-05-04 17:52 | 30.05609 | 31.44334 | 6240 ft | 290 kts | 81° |
| 2026-05-04 17:53 | 30.06262 | 31.46500 | 5940 ft | 286 kts | 59° |
| 2026-05-04 17:53 | 30.07281 | 31.48463 | 5571 ft | 283 kts | 55° |
| 2026-05-04 17:53 | 30.08321 | 31.50375 | 5238 ft | 280 kts | 55° |
| 2026-05-04 17:53 | 30.09339 | 31.52274 | 4950 ft | 278 kts | 55° |
| 2026-05-04 17:54 | 30.10344 | 31.54168 | 4630 ft | 275 kts | 55° |
| 2026-05-04 17:54 | 30.11339 | 31.56057 | 4329 ft | 274 kts | 55° |
| 2026-05-04 17:54 | 30.12325 | 31.57939 | 4035 ft | 272 kts | 55° |
| 2026-05-04 17:54 | 30.13315 | 31.59755 | 3736 ft | 257 kts | 50° |
| 2026-05-04 17:55 | 30.14521 | 31.61112 | 3481 ft | 231 kts | 27° |
| 2026-05-04 17:55 | 30.15948 | 31.61784 | 3385 ft | 212 kts | 6° |
| 2026-05-04 17:55 | 30.17325 | 31.61835 | 3301 ft | 190 kts | 348° |
| 2026-05-04 17:55 | 30.18541 | 31.61412 | 3218 ft | 177 kts | 332° |
| 2026-05-04 17:56 | 30.19584 | 31.60742 | 3190 ft | 167 kts | 327° |
| 2026-05-04 17:56 | 30.20510 | 31.59957 | 3100 ft | 166 kts | 316° |
| 2026-05-04 17:56 | 30.21109 | 31.58816 | 2995 ft | 171 kts | 289° |
| 2026-05-04 17:56 | 30.20936 | 31.57448 | 2943 ft | 178 kts | 252° |
| 2026-05-04 17:57 | 30.20346 | 31.56170 | 2850 ft | 185 kts | 239° |
| 2026-05-04 17:57 | 30.19505 | 31.55042 | 2725 ft | 182 kts | 234° |
| 2026-05-04 17:57 | 30.18710 | 31.53937 | 2491 ft | 175 kts | 236° |
| 2026-05-04 17:57 | 30.17939 | 31.52900 | 2255 ft | 166 kts | 235° |
| 2026-05-04 17:58 | 30.17195 | 31.51907 | 2032 ft | 160 kts | 236° |
| 2026-05-04 17:58 | 30.16487 | 31.50954 | 1817 ft | 154 kts | 236° |
| 2026-05-04 17:58 | 30.15801 | 31.50033 | 1612 ft | 147 kts | 236° |
| 2026-05-04 17:58 | 30.15152 | 31.49166 | 1416 ft | 138 kts | 237° |
| 2026-05-04 17:59 | 30.14536 | 31.48342 | 1247 ft | 134 kts | 238° |
| 2026-05-04 17:59 | 30.13928 | 31.47522 | 1067 ft | 134 kts | 237° |
| 2026-05-04 17:59 | 30.12655 | 31.45870 | 675 ft | 139 kts | 236° |
| 2026-05-04 18:00 | 30.12039 | 31.45005 | 473 ft | 139 kts | 234° |
| 2026-05-04 18:00 | 30.11413 | 31.44162 | 387 ft | 134 kts | 237° |
| 2026-05-04 18:00 | 30.10872 | 31.43440 | 380 ft | 91 kts | 230° |
| 2026-05-04 18:00 | 30.10605 | 31.43080 | 378 ft | 48 kts | 234° |
| 2026-05-04 18:01 | 30.10487 | 31.42758 | 381 ft | 26 kts | 254° |
| 2026-05-04 18:01 | 30.10470 | 31.42681 | 380 ft | 0 kts | 255° |
| 2026-05-04 18:03 | 30.10463 | 31.42654 | 380 ft | 7 kts | 254° |
| 2026-05-04 18:03 | 30.10438 | 31.42575 | 381 ft | 13 kts | 241° |
| 2026-05-04 18:03 | 30.10371 | 31.42477 | 381 ft | 18 kts | 229° |
| 2026-05-04 18:03 | 30.10279 | 31.42354 | 381 ft | 22 kts | 230° |
| 2026-05-04 18:04 | 30.10167 | 31.42205 | 381 ft | 27 kts | 229° |
| 2026-05-04 18:04 | 30.10046 | 31.42041 | 380 ft | 17 kts | 230° |
| 2026-05-04 18:04 | 30.09987 | 31.41964 | 381 ft | 14 kts | 229° |
| 2026-05-04 18:05 | 30.09910 | 31.41865 | 381 ft | 16 kts | 228° |
| 2026-05-04 18:05 | 30.09883 | 31.41793 | 381 ft | 12 kts | 275° |
| 2026-05-04 18:05 | 30.09922 | 31.41676 | 381 ft | 13 kts | 274° |
| 2026-05-04 18:05 | 30.09904 | 31.41555 | 381 ft | 18 kts | 258° |
| 2026-05-04 18:06 | 30.09846 | 31.41201 | 381 ft | 25 kts | 259° |
| 2026-05-04 18:06 | 30.09818 | 31.41022 | 381 ft | 24 kts | 260° |
| 2026-05-04 18:06 | 30.09788 | 31.40837 | 381 ft | 22 kts | 259° |
| 2026-05-04 18:07 | 30.09812 | 31.40738 | 381 ft | 13 kts | 310° |
| 2026-05-04 18:07 | 30.09890 | 31.40656 | 381 ft | 17 kts | 320° |
| 2026-05-04 18:07 | 30.09954 | 31.40593 | 380 ft | 20 kts | 320° |
| 2026-05-04 18:07 | 30.10108 | 31.40441 | 380 ft | 23 kts | 319° |
| 2026-05-04 18:08 | 30.10180 | 31.40369 | 380 ft | 10 kts | 319° |
| 2026-05-04 18:08 | 30.10241 | 31.40308 | 385 ft | 14 kts | 319° |
| 2026-05-04 18:08 | 30.10323 | 31.40228 | 380 ft | 15 kts | 319° |
| 2026-05-04 18:08 | 30.10383 | 31.40168 | 380 ft | 0 kts | 319° |
| 2026-05-04 18:10 | 30.10384 | 31.40167 | 380 ft | 1 kts | 319° |
| 2026-05-04 18:11 | 30.10406 | 31.40145 | 380 ft | 8 kts | 319° |
| 2026-05-04 18:11 | 30.10432 | 31.40099 | 380 ft | 4 kts | 270° |
| 2026-05-04 18:11 | 30.10426 | 31.40049 | 380 ft | 8 kts | 249° |
| 2026-05-04 18:11 | 30.10391 | 31.39994 | 380 ft | 10 kts | 231° |
| 2026-05-04 18:12 | 30.10337 | 31.39919 | 380 ft | 14 kts | 230° |
| 2026-05-04 18:12 | 30.10270 | 31.39827 | 380 ft | 16 kts | 230° |
| 2026-05-04 18:12 | 30.10190 | 31.39725 | 380 ft | 15 kts | 228° |
| 2026-05-04 18:12 | 30.10132 | 31.39628 | 380 ft | 12 kts | 261° |
| 2026-05-04 18:13 | 30.10151 | 31.39587 | 380 ft | 4 kts | 323° |
| 2026-05-04 18:13 | 30.10176 | 31.39582 | 380 ft | 4 kts | 4° |
| 2026-05-04 18:13 | 30.10251 | 31.39652 | 380 ft | 10 kts | 46° |
| 2026-05-04 18:14 | 30.10306 | 31.39722 | 380 ft | 13 kts | 48° |
| 2026-05-04 18:14 | 30.10374 | 31.39811 | 380 ft | 16 kts | 49° |
| 2026-05-04 18:14 | 30.10462 | 31.39873 | 380 ft | 13 kts | 358° |
| 2026-05-04 18:15 | 30.10593 | 31.39843 | 380 ft | 10 kts | 343° |
| 2026-05-04 18:15 | 30.10740 | 31.39794 | 380 ft | 3 kts | 354° |
| 2026-05-04 18:15 | 30.10758 | 31.39805 | 380 ft | 4 kts | 35° |
| 2026-05-04 18:16 | 30.10775 | 31.39834 | 380 ft | 5 kts | 64° |
| 2026-05-04 18:16 | 30.10783 | 31.39856 | 380 ft | 0 kts | 70° |
| 2026-05-04 18:16 | 30.10783 | 31.39860 | 380 ft | 1 kts | 72° |
| 2026-05-04 18:17 | 30.10788 | 31.39880 | 380 ft | 0 kts | 73° |
| 2026-05-04 18:17 | 30.10789 | 31.39880 | 380 ft | 0 kts | 73° |